Weather at Bennett Airport

Public forecast

Using degrees Fahrenheit for public forecast. Weather courtesy of forecast.io.

Closest aviation weather report (METAR) to Bennett Airport

Closest report is Salisbury Ocean City Wicomico Regional Airport, 6.5 nm (12.0 km) SE. Retrieved 2021/06/22 23:54 UTC (2 hours ago):

KSBY 222354Z 33004KT 10SM SCT050 19/17 A2991 RMK AO2 RAE05 SLP131 P0000 60041 T01940167 10206 20194 51047

Closest aviation forecast (TAF) to Bennett Airport

Closest forecast is Salisbury Ocean City Wicomico Regional Airport, 6.5 nm (12.0 km) SE. Retrieved 2021-06-23 00:22 UTC (1 hour ago):

TAF KSBY 222320Z 2300/2324 30005KT P6SM BKN100 FM230400 33004KT P6SM BKN250 FM230900 36004KT P6SM SCT250 FM231500 02009KT P6SM SKC FM232100 06006KT P6SM SKC